sensor_id;sensor_type;location;lat;lon;timestamp;P1;durP1;ratioP1;P2;durP2;ratioP2
10244;SDS011;5167;52.164;10.530;2023-03-04T00:02:14;18.80;;;6.90;;
10244;SDS011;5167;52.164;10.530;2023-03-04T00:04:40;18.37;;;6.07;;
10244;SDS011;5167;52.164;10.530;2023-03-04T00:07:05;13.50;;;5.80;;
10244;SDS011;5167;52.164;10.530;2023-03-04T00:09:31;17.57;;;7.03;;
10244;SDS011;5167;52.164;10.530;2023-03-04T00:11:56;13.63;;;6.33;;
10244;SDS011;5167;52.164;10.530;2023-03-04T00:14:22;21.10;;;5.93;;
10244;SDS011;5167;52.164;10.530;2023-03-04T00:16:47;22.83;;;8.10;;
10244;SDS011;5167;52.164;10.530;2023-03-04T00:19:13;25.37;;;5.83;;
10244;SDS011;5167;52.164;10.530;2023-03-04T00:21:38;19.37;;;5.80;;
10244;SDS011;5167;52.164;10.530;2023-03-04T00:24:04;17.63;;;5.53;;
10244;SDS011;5167;52.164;10.530;2023-03-04T00:26:30;15.23;;;5.63;;
10244;SDS011;5167;52.164;10.530;2023-03-04T00:28:56;17.87;;;5.73;;
10244;SDS011;5167;52.164;10.530;2023-03-04T00:31:21;15.40;;;4.80;;
10244;SDS011;5167;52.164;10.530;2023-03-04T00:33:47;14.83;;;5.50;;
10244;SDS011;5167;52.164;10.530;2023-03-04T00:36:12;16.67;;;4.90;;
10244;SDS011;5167;52.164;10.530;2023-03-04T00:38:38;21.80;;;6.30;;
10244;SDS011;5167;52.164;10.530;2023-03-04T00:41:03;15.83;;;6.40;;
10244;SDS011;5167;52.164;10.530;2023-03-04T00:43:29;15.93;;;5.73;;
10244;SDS011;5167;52.164;10.530;2023-03-04T00:45:56;16.53;;;5.00;;
10244;SDS011;5167;52.164;10.530;2023-03-04T00:48:21;20.43;;;5.10;;
10244;SDS011;5167;52.164;10.530;2023-03-04T00:50:47;19.90;;;5.57;;
10244;SDS011;5167;52.164;10.530;2023-03-04T00:53:13;13.33;;;5.10;;
10244;SDS011;5167;52.164;10.530;2023-03-04T00:55:38;12.03;;;5.70;;
10244;SDS011;5167;52.164;10.530;2023-03-04T00:58:04;21.63;;;5.50;;
10244;SDS011;5167;52.164;10.530;2023-03-04T01:00:29;13.83;;;5.17;;
10244;SDS011;5167;52.164;10.530;2023-03-04T01:02:55;14.23;;;5.03;;
10244;SDS011;5167;52.164;10.530;2023-03-04T01:05:20;17.30;;;5.57;;
10244;SDS011;5167;52.164;10.530;2023-03-04T01:07:46;19.17;;;4.90;;
10244;SDS011;5167;52.164;10.530;2023-03-04T01:10:13;16.43;;;5.57;;
10244;SDS011;5167;52.164;10.530;2023-03-04T01:12:39;13.03;;;5.27;;
10244;SDS011;5167;52.164;10.530;2023-03-04T01:15:05;13.50;;;4.83;;
10244;SDS011;5167;52.164;10.530;2023-03-04T01:17:32;17.33;;;5.10;;
10244;SDS011;5167;52.164;10.530;2023-03-04T01:19:57;16.00;;;5.37;;
10244;SDS011;5167;52.164;10.530;2023-03-04T01:22:23;26.20;;;5.73;;
10244;SDS011;5167;52.164;10.530;2023-03-04T01:24:49;18.63;;;4.93;;
10244;SDS011;5167;52.164;10.530;2023-03-04T01:27:14;27.67;;;5.70;;
10244;SDS011;5167;52.164;10.530;2023-03-04T01:29:40;12.07;;;5.13;;
10244;SDS011;5167;52.164;10.530;2023-03-04T01:32:05;14.70;;;4.27;;
10244;SDS011;5167;52.164;10.530;2023-03-04T01:34:31;14.27;;;5.30;;
10244;SDS011;5167;52.164;10.530;2023-03-04T01:36:56;15.07;;;4.40;;
10244;SDS011;5167;52.164;10.530;2023-03-04T01:39:21;18.67;;;4.47;;
10244;SDS011;5167;52.164;10.530;2023-03-04T01:41:47;20.53;;;4.67;;
10244;SDS011;5167;52.164;10.530;2023-03-04T01:44:13;21.03;;;5.03;;
10244;SDS011;5167;52.164;10.530;2023-03-04T01:46:39;18.30;;;4.50;;
10244;SDS011;5167;52.164;10.530;2023-03-04T01:49:15;22.27;;;5.33;;
10244;SDS011;5167;52.164;10.530;2023-03-04T01:51:46;15.70;;;4.37;;
10244;SDS011;5167;52.164;10.530;2023-03-04T01:54:15;9.07;;;3.80;;
10244;SDS011;5167;52.164;10.530;2023-03-04T01:56:41;16.87;;;4.40;;
10244;SDS011;5167;52.164;10.530;2023-03-04T01:59:13;18.73;;;4.00;;
10244;SDS011;5167;52.164;10.530;2023-03-04T02:01:43;20.87;;;4.73;;
10244;SDS011;5167;52.164;10.530;2023-03-04T02:04:11;15.47;;;3.93;;
10244;SDS011;5167;52.164;10.530;2023-03-04T02:06:38;14.53;;;4.03;;
10244;SDS011;5167;52.164;10.530;2023-03-04T02:09:05;17.57;;;4.77;;
10244;SDS011;5167;52.164;10.530;2023-03-04T02:11:31;20.03;;;4.87;;
10244;SDS011;5167;52.164;10.530;2023-03-04T02:13:58;12.63;;;4.40;;
10244;SDS011;5167;52.164;10.530;2023-03-04T02:16:23;13.10;;;4.03;;
10244;SDS011;5167;52.164;10.530;2023-03-04T02:18:49;19.37;;;4.20;;
10244;SDS011;5167;52.164;10.530;2023-03-04T02:21:28;9.63;;;4.37;;
10244;SDS011;5167;52.164;10.530;2023-03-04T02:24:16;15.00;;;4.90;;
10244;SDS011;5167;52.164;10.530;2023-03-04T02:26:45;19.93;;;4.67;;
10244;SDS011;5167;52.164;10.530;2023-03-04T02:29:11;19.40;;;4.80;;
10244;SDS011;5167;52.164;10.530;2023-03-04T02:31:42;13.80;;;4.17;;
10244;SDS011;5167;52.164;10.530;2023-03-04T02:34:14;17.87;;;4.87;;
10244;SDS011;5167;52.164;10.530;2023-03-04T02:36:44;17.03;;;4.27;;
10244;SDS011;5167;52.164;10.530;2023-03-04T02:39:21;16.57;;;5.43;;
10244;SDS011;5167;52.164;10.530;2023-03-04T02:41:54;19.33;;;4.47;;
10244;SDS011;5167;52.164;10.530;2023-03-04T02:44:21;12.93;;;3.63;;
10244;SDS011;5167;52.164;10.530;2023-03-04T02:46:49;17.63;;;3.90;;
10244;SDS011;5167;52.164;10.530;2023-03-04T02:49:16;12.23;;;3.57;;
10244;SDS011;5167;52.164;10.530;2023-03-04T02:51:42;10.27;;;3.87;;
10244;SDS011;5167;52.164;10.530;2023-03-04T02:54:21;17.23;;;4.03;;
10244;SDS011;5167;52.164;10.530;2023-03-04T02:56:48;19.23;;;4.30;;
10244;SDS011;5167;52.164;10.530;2023-03-04T02:59:15;16.70;;;4.63;;
10244;SDS011;5167;52.164;10.530;2023-03-04T03:01:41;13.40;;;3.67;;
10244;SDS011;5167;52.164;10.530;2023-03-04T03:04:07;9.90;;;3.53;;
10244;SDS011;5167;52.164;10.530;2023-03-04T03:06:33;15.47;;;3.93;;
10244;SDS011;5167;52.164;10.530;2023-03-04T03:08:59;15.03;;;4.13;;
10244;SDS011;5167;52.164;10.530;2023-03-04T03:11:24;9.33;;;3.60;;
10244;SDS011;5167;52.164;10.530;2023-03-04T03:13:50;20.17;;;4.30;;
10244;SDS011;5167;52.164;10.530;2023-03-04T03:16:15;16.30;;;4.03;;
10244;SDS011;5167;52.164;10.530;2023-03-04T03:18:40;9.70;;;3.57;;
10244;SDS011;5167;52.164;10.530;2023-03-04T03:21:06;11.90;;;3.30;;
10244;SDS011;5167;52.164;10.530;2023-03-04T03:23:32;17.37;;;4.27;;
10244;SDS011;5167;52.164;10.530;2023-03-04T03:25:59;16.37;;;3.80;;
10244;SDS011;5167;52.164;10.530;2023-03-04T03:28:25;9.07;;;3.80;;
10244;SDS011;5167;52.164;10.530;2023-03-04T03:30:50;14.07;;;3.77;;
10244;SDS011;5167;52.164;10.530;2023-03-04T03:33:16;10.63;;;3.20;;
10244;SDS011;5167;52.164;10.530;2023-03-04T03:35:41;18.70;;;4.03;;
10244;SDS011;5167;52.164;10.530;2023-03-04T03:38:07;12.10;;;4.10;;
10244;SDS011;5167;52.164;10.530;2023-03-04T03:40:32;16.53;;;3.53;;
10244;SDS011;5167;52.164;10.530;2023-03-04T03:42:58;9.90;;;3.10;;
10244;SDS011;5167;52.164;10.530;2023-03-04T03:45:23;13.93;;;3.83;;
10244;SDS011;5167;52.164;10.530;2023-03-04T03:47:49;13.37;;;3.10;;
10244;SDS011;5167;52.164;10.530;2023-03-04T03:50:14;9.23;;;3.60;;
10244;SDS011;5167;52.164;10.530;2023-03-04T03:52:40;15.77;;;3.77;;
10244;SDS011;5167;52.164;10.530;2023-03-04T03:55:06;11.90;;;3.30;;
10244;SDS011;5167;52.164;10.530;2023-03-04T03:57:32;16.03;;;4.10;;
10244;SDS011;5167;52.164;10.530;2023-03-04T03:59:57;16.87;;;3.37;;
10244;SDS011;5167;52.164;10.530;2023-03-04T04:02:22;14.47;;;2.87;;
10244;SDS011;5167;52.164;10.530;2023-03-04T04:04:48;15.77;;;3.37;;
10244;SDS011;5167;52.164;10.530;2023-03-04T04:07:14;13.07;;;3.40;;
10244;SDS011;5167;52.164;10.530;2023-03-04T04:09:39;8.63;;;3.17;;
10244;SDS011;5167;52.164;10.530;2023-03-04T04:12:05;10.23;;;3.37;;
10244;SDS011;5167;52.164;10.530;2023-03-04T04:14:31;13.27;;;3.33;;
10244;SDS011;5167;52.164;10.530;2023-03-04T04:16:57;8.87;;;2.77;;
10244;SDS011;5167;52.164;10.530;2023-03-04T04:19:22;18.40;;;3.47;;
10244;SDS011;5167;52.164;10.530;2023-03-04T04:21:48;13.60;;;3.57;;
10244;SDS011;5167;52.164;10.530;2023-03-04T04:24:13;13.53;;;3.60;;
10244;SDS011;5167;52.164;10.530;2023-03-04T04:26:39;12.87;;;3.03;;
10244;SDS011;5167;52.164;10.530;2023-03-04T04:29:05;11.23;;;2.73;;
10244;SDS011;5167;52.164;10.530;2023-03-04T04:31:31;8.63;;;2.87;;
10244;SDS011;5167;52.164;10.530;2023-03-04T04:33:57;8.97;;;3.10;;
10244;SDS011;5167;52.164;10.530;2023-03-04T04:36:23;5.33;;;2.80;;
10244;SDS011;5167;52.164;10.530;2023-03-04T04:38:48;13.77;;;3.93;;
10244;SDS011;5167;52.164;10.530;2023-03-04T04:41:18;7.40;;;2.83;;
10244;SDS011;5167;52.164;10.530;2023-03-04T04:43:46;12.67;;;2.80;;
10244;SDS011;5167;52.164;10.530;2023-03-04T04:46:13;10.20;;;3.50;;
10244;SDS011;5167;52.164;10.530;2023-03-04T04:48:39;9.03;;;2.90;;
10244;SDS011;5167;52.164;10.530;2023-03-04T04:51:04;18.13;;;2.93;;
10244;SDS011;5167;52.164;10.530;2023-03-04T04:53:30;6.77;;;2.43;;
10244;SDS011;5167;52.164;10.530;2023-03-04T04:55:55;10.10;;;2.90;;
10244;SDS011;5167;52.164;10.530;2023-03-04T04:58:21;10.20;;;3.30;;
10244;SDS011;5167;52.164;10.530;2023-03-04T05:00:46;15.43;;;3.70;;
10244;SDS011;5167;52.164;10.530;2023-03-04T05:03:12;10.37;;;3.13;;
10244;SDS011;5167;52.164;10.530;2023-03-04T05:05:37;7.13;;;3.20;;
10244;SDS011;5167;52.164;10.530;2023-03-04T05:08:03;9.47;;;3.37;;
10244;SDS011;5167;52.164;10.530;2023-03-04T05:10:29;11.17;;;2.93;;
10244;SDS011;5167;52.164;10.530;2023-03-04T05:12:54;3.60;;;1.70;;
10244;SDS011;5167;52.164;10.530;2023-03-04T05:15:20;8.77;;;2.30;;
10244;SDS011;5167;52.164;10.530;2023-03-04T05:17:45;9.40;;;3.63;;
10244;SDS011;5167;52.164;10.530;2023-03-04T05:20:11;13.00;;;3.13;;
10244;SDS011;5167;52.164;10.530;2023-03-04T05:22:36;7.13;;;2.70;;
10244;SDS011;5167;52.164;10.530;2023-03-04T05:25:02;10.90;;;2.60;;
10244;SDS011;5167;52.164;10.530;2023-03-04T05:27:28;8.27;;;2.27;;
10244;SDS011;5167;52.164;10.530;2023-03-04T05:29:53;10.50;;;2.50;;
10244;SDS011;5167;52.164;10.530;2023-03-04T05:32:19;8.83;;;2.40;;
10244;SDS011;5167;52.164;10.530;2023-03-04T05:34:45;10.10;;;2.73;;
10244;SDS011;5167;52.164;10.530;2023-03-04T05:37:10;6.87;;;1.97;;
10244;SDS011;5167;52.164;10.530;2023-03-04T05:39:36;6.57;;;2.23;;
10244;SDS011;5167;52.164;10.530;2023-03-04T05:42:01;6.53;;;2.07;;
10244;SDS011;5167;52.164;10.530;2023-03-04T05:44:27;8.40;;;2.40;;
10244;SDS011;5167;52.164;10.530;2023-03-04T05:46:52;11.37;;;2.80;;
10244;SDS011;5167;52.164;10.530;2023-03-04T05:49:18;13.87;;;3.00;;
10244;SDS011;5167;52.164;10.530;2023-03-04T05:51:44;13.17;;;3.00;;
10244;SDS011;5167;52.164;10.530;2023-03-04T05:54:09;10.33;;;2.27;;
10244;SDS011;5167;52.164;10.530;2023-03-04T05:56:36;11.53;;;2.63;;
10244;SDS011;5167;52.164;10.530;2023-03-04T05:59:01;7.40;;;2.10;;
10244;SDS011;5167;52.164;10.530;2023-03-04T06:01:26;7.40;;;2.60;;
10244;SDS011;5167;52.164;10.530;2023-03-04T06:03:52;5.87;;;2.23;;
10244;SDS011;5167;52.164;10.530;2023-03-04T06:06:17;11.03;;;2.90;;
10244;SDS011;5167;52.164;10.530;2023-03-04T06:08:43;6.00;;;2.17;;
10244;SDS011;5167;52.164;10.530;2023-03-04T06:11:08;6.13;;;2.60;;
10244;SDS011;5167;52.164;10.530;2023-03-04T06:13:34;4.70;;;2.47;;
10244;SDS011;5167;52.164;10.530;2023-03-04T06:15:59;7.10;;;2.50;;
10244;SDS011;5167;52.164;10.530;2023-03-04T06:18:26;10.83;;;3.13;;
10244;SDS011;5167;52.164;10.530;2023-03-04T06:20:56;10.13;;;2.60;;
10244;SDS011;5167;52.164;10.530;2023-03-04T06:23:22;7.83;;;2.60;;
10244;SDS011;5167;52.164;10.530;2023-03-04T06:25:52;8.20;;;2.80;;
10244;SDS011;5167;52.164;10.530;2023-03-04T06:28:19;5.83;;;2.20;;
10244;SDS011;5167;52.164;10.530;2023-03-04T06:30:44;7.47;;;2.57;;
10244;SDS011;5167;52.164;10.530;2023-03-04T06:33:10;5.83;;;3.23;;
10244;SDS011;5167;52.164;10.530;2023-03-04T06:35:35;5.67;;;2.30;;
10244;SDS011;5167;52.164;10.530;2023-03-04T06:38:01;7.30;;;2.97;;
10244;SDS011;5167;52.164;10.530;2023-03-04T06:40:26;11.57;;;3.43;;
10244;SDS011;5167;52.164;10.530;2023-03-04T06:42:52;8.40;;;2.50;;
10244;SDS011;5167;52.164;10.530;2023-03-04T06:45:17;3.53;;;2.37;;
10244;SDS011;5167;52.164;10.530;2023-03-04T06:47:43;9.80;;;2.23;;
10244;SDS011;5167;52.164;10.530;2023-03-04T06:50:09;6.93;;;2.63;;
10244;SDS011;5167;52.164;10.530;2023-03-04T06:52:36;10.93;;;2.47;;
10244;SDS011;5167;52.164;10.530;2023-03-04T06:55:01;5.07;;;2.30;;
10244;SDS011;5167;52.164;10.530;2023-03-04T06:57:27;2.43;;;2.00;;
10244;SDS011;5167;52.164;10.530;2023-03-04T06:59:53;8.30;;;2.40;;
10244;SDS011;5167;52.164;10.530;2023-03-04T07:02:19;10.57;;;2.30;;
10244;SDS011;5167;52.164;10.530;2023-03-04T07:04:44;8.20;;;2.13;;
10244;SDS011;5167;52.164;10.530;2023-03-04T07:07:10;6.03;;;3.13;;
10244;SDS011;5167;52.164;10.530;2023-03-04T07:09:36;8.43;;;4.47;;
10244;SDS011;5167;52.164;10.530;2023-03-04T07:12:01;15.67;;;7.77;;
10244;SDS011;5167;52.164;10.530;2023-03-04T07:14:27;19.00;;;6.40;;
10244;SDS011;5167;52.164;10.530;2023-03-04T07:16:53;16.03;;;5.40;;
10244;SDS011;5167;52.164;10.530;2023-03-04T07:19:18;16.27;;;6.20;;
10244;SDS011;5167;52.164;10.530;2023-03-04T07:21:44;9.40;;;3.90;;
10244;SDS011;5167;52.164;10.530;2023-03-04T07:24:10;8.10;;;3.67;;
10244;SDS011;5167;52.164;10.530;2023-03-04T07:26:36;15.40;;;5.63;;
10244;SDS011;5167;52.164;10.530;2023-03-04T07:29:03;6.43;;;2.70;;
10244;SDS011;5167;52.164;10.530;2023-03-04T07:31:29;4.73;;;2.33;;
10244;SDS011;5167;52.164;10.530;2023-03-04T07:34:01;12.17;;;5.60;;
10244;SDS011;5167;52.164;10.530;2023-03-04T07:36:28;4.60;;;3.40;;
10244;SDS011;5167;52.164;10.530;2023-03-04T07:38:54;6.83;;;2.43;;
10244;SDS011;5167;52.164;10.530;2023-03-04T07:41:21;8.30;;;2.63;;
10244;SDS011;5167;52.164;10.530;2023-03-04T07:43:48;9.87;;;2.50;;
10244;SDS011;5167;52.164;10.530;2023-03-04T07:46:14;6.67;;;2.70;;
10244;SDS011;5167;52.164;10.530;2023-03-04T07:48:40;3.43;;;1.60;;
10244;SDS011;5167;52.164;10.530;2023-03-04T07:51:07;6.57;;;2.03;;
10244;SDS011;5167;52.164;10.530;2023-03-04T07:53:35;4.00;;;2.43;;
10244;SDS011;5167;52.164;10.530;2023-03-04T07:56:02;4.17;;;1.90;;
10244;SDS011;5167;52.164;10.530;2023-03-04T07:58:28;6.50;;;2.20;;
10244;SDS011;5167;52.164;10.530;2023-03-04T08:00:54;5.83;;;1.80;;
10244;SDS011;5167;52.164;10.530;2023-03-04T08:03:19;5.83;;;2.50;;
10244;SDS011;5167;52.164;10.530;2023-03-04T08:05:45;5.40;;;1.80;;
10244;SDS011;5167;52.164;10.530;2023-03-04T08:08:11;2.23;;;2.00;;
10244;SDS011;5167;52.164;10.530;2023-03-04T08:10:36;4.90;;;1.97;;
10244;SDS011;5167;52.164;10.530;2023-03-04T08:13:03;8.70;;;2.60;;
10244;SDS011;5167;52.164;10.530;2023-03-04T08:15:32;5.53;;;2.50;;
10244;SDS011;5167;52.164;10.530;2023-03-04T08:17:59;7.90;;;2.33;;
10244;SDS011;5167;52.164;10.530;2023-03-04T08:20:25;2.80;;;2.10;;
10244;SDS011;5167;52.164;10.530;2023-03-04T08:22:51;12.37;;;3.20;;
10244;SDS011;5167;52.164;10.530;2023-03-04T08:25:16;7.53;;;1.87;;
10244;SDS011;5167;52.164;10.530;2023-03-04T08:27:42;3.10;;;1.97;;
10244;SDS011;5167;52.164;10.530;2023-03-04T08:30:07;2.20;;;1.77;;
10244;SDS011;5167;52.164;10.530;2023-03-04T08:32:33;4.73;;;1.90;;
10244;SDS011;5167;52.164;10.530;2023-03-04T08:34:59;12.97;;;2.40;;
10244;SDS011;5167;52.164;10.530;2023-03-04T08:37:26;4.87;;;2.40;;
10244;SDS011;5167;52.164;10.530;2023-03-04T08:39:53;4.53;;;1.93;;
10244;SDS011;5167;52.164;10.530;2023-03-04T08:42:18;5.83;;;1.97;;
10244;SDS011;5167;52.164;10.530;2023-03-04T08:44:44;5.70;;;2.30;;
10244;SDS011;5167;52.164;10.530;2023-03-04T08:47:09;5.30;;;2.10;;
10244;SDS011;5167;52.164;10.530;2023-03-04T08:49:36;6.87;;;2.23;;
10244;SDS011;5167;52.164;10.530;2023-03-04T08:52:01;6.47;;;2.60;;
10244;SDS011;5167;52.164;10.530;2023-03-04T08:54:27;4.67;;;2.40;;
10244;SDS011;5167;52.164;10.530;2023-03-04T08:56:52;8.43;;;2.53;;
10244;SDS011;5167;52.164;10.530;2023-03-04T08:59:18;8.83;;;2.30;;
10244;SDS011;5167;52.164;10.530;2023-03-04T09:01:43;5.80;;;2.73;;
10244;SDS011;5167;52.164;10.530;2023-03-04T09:04:09;4.87;;;2.20;;
10244;SDS011;5167;52.164;10.530;2023-03-04T09:06:34;9.57;;;2.87;;
10244;SDS011;5167;52.164;10.530;2023-03-04T09:09:01;5.60;;;2.40;;
10244;SDS011;5167;52.164;10.530;2023-03-04T09:11:27;5.83;;;2.60;;
10244;SDS011;5167;52.164;10.530;2023-03-04T09:13:52;9.27;;;3.00;;
10244;SDS011;5167;52.164;10.530;2023-03-04T09:16:18;9.23;;;2.80;;
10244;SDS011;5167;52.164;10.530;2023-03-04T09:18:43;9.00;;;2.70;;
10244;SDS011;5167;52.164;10.530;2023-03-04T09:21:09;8.23;;;2.90;;
10244;SDS011;5167;52.164;10.530;2023-03-04T09:23:35;7.70;;;5.43;;
10244;SDS011;5167;52.164;10.530;2023-03-04T09:26:01;10.57;;;3.33;;
10244;SDS011;5167;52.164;10.530;2023-03-04T09:28:45;9.50;;;3.03;;
10244;SDS011;5167;52.164;10.530;2023-03-04T09:31:14;6.80;;;2.50;;
10244;SDS011;5167;52.164;10.530;2023-03-04T09:33:40;4.90;;;2.20;;
10244;SDS011;5167;52.164;10.530;2023-03-04T09:36:07;2.53;;;1.93;;
10244;SDS011;5167;52.164;10.530;2023-03-04T09:38:34;6.30;;;2.13;;
10244;SDS011;5167;52.164;10.530;2023-03-04T09:41:03;3.20;;;2.30;;
10244;SDS011;5167;52.164;10.530;2023-03-04T09:43:49;3.87;;;2.00;;
10244;SDS011;5167;52.164;10.530;2023-03-04T09:46:20;10.13;;;2.83;;
10244;SDS011;5167;52.164;10.530;2023-03-04T09:49:09;3.07;;;2.10;;
10244;SDS011;5167;52.164;10.530;2023-03-04T09:51:47;3.87;;;2.30;;
10244;SDS011;5167;52.164;10.530;2023-03-04T10:05:21;3.27;;;2.20;;
10244;SDS011;5167;52.164;10.530;2023-03-04T10:07:49;7.27;;;2.83;;
10244;SDS011;5167;52.164;10.530;2023-03-04T10:10:24;8.73;;;3.23;;
10244;SDS011;5167;52.164;10.530;2023-03-04T10:12:50;3.87;;;2.40;;
10244;SDS011;5167;52.164;10.530;2023-03-04T10:17:51;6.33;;;2.50;;
10244;SDS011;5167;52.164;10.530;2023-03-04T10:20:22;4.43;;;2.73;;
10244;SDS011;5167;52.164;10.530;2023-03-04T10:22:51;10.17;;;4.83;;
10244;SDS011;5167;52.164;10.530;2023-03-04T10:25:22;13.23;;;3.63;;
10244;SDS011;5167;52.164;10.530;2023-03-04T10:27:51;7.97;;;3.53;;
10244;SDS011;5167;52.164;10.530;2023-03-04T10:30:40;10.27;;;3.57;;
10244;SDS011;5167;52.164;10.530;2023-03-04T10:33:13;7.93;;;3.87;;
10244;SDS011;5167;52.164;10.530;2023-03-04T10:38:24;14.40;;;4.57;;
10244;SDS011;5167;52.164;10.530;2023-03-04T10:40:52;8.40;;;3.00;;
10244;SDS011;5167;52.164;10.530;2023-03-04T10:43:19;4.40;;;2.60;;
10244;SDS011;5167;52.164;10.530;2023-03-04T10:45:46;9.53;;;3.87;;
10244;SDS011;5167;52.164;10.530;2023-03-04T10:48:20;8.23;;;3.70;;
10244;SDS011;5167;52.164;10.530;2023-03-04T10:50:48;10.90;;;4.60;;
10244;SDS011;5167;52.164;10.530;2023-03-04T10:53:24;9.83;;;4.00;;
10244;SDS011;5167;52.164;10.530;2023-03-04T10:55:51;14.07;;;4.33;;
10244;SDS011;5167;52.164;10.530;2023-03-04T10:58:16;10.77;;;4.23;;
10244;SDS011;5167;52.164;10.530;2023-03-04T11:00:43;7.20;;;3.27;;
10244;SDS011;5167;52.164;10.530;2023-03-04T11:03:17;13.03;;;3.47;;
10244;SDS011;5167;52.164;10.530;2023-03-04T11:05:51;12.97;;;4.03;;
10244;SDS011;5167;52.164;10.530;2023-03-04T11:08:27;11.53;;;3.17;;
10244;SDS011;5167;52.164;10.530;2023-03-04T11:10:52;9.33;;;4.10;;
10244;SDS011;5167;52.164;10.530;2023-03-04T11:13:19;12.80;;;3.30;;
10244;SDS011;5167;52.164;10.530;2023-03-04T11:15:54;7.77;;;2.70;;
10244;SDS011;5167;52.164;10.530;2023-03-04T11:21:04;13.83;;;3.43;;
10244;SDS011;5167;52.164;10.530;2023-03-04T11:23:33;10.23;;;2.33;;
10244;SDS011;5167;52.164;10.530;2023-03-04T11:26:01;7.77;;;2.47;;
10244;SDS011;5167;52.164;10.530;2023-03-04T11:28:44;7.07;;;3.37;;
10244;SDS011;5167;52.164;10.530;2023-03-04T11:31:18;7.93;;;2.73;;
10244;SDS011;5167;52.164;10.530;2023-03-04T11:34:05;10.23;;;3.37;;
10244;SDS011;5167;52.164;10.530;2023-03-04T11:36:54;9.17;;;3.17;;
10244;SDS011;5167;52.164;10.530;2023-03-04T11:44:45;15.10;;;3.00;;
10244;SDS011;5167;52.164;10.530;2023-03-04T11:52:27;8.50;;;2.30;;
10244;SDS011;5167;52.164;10.530;2023-03-04T11:55:20;7.67;;;2.60;;
10244;SDS011;5167;52.164;10.530;2023-03-04T11:58:34;7.20;;;2.50;;
10244;SDS011;5167;52.164;10.530;2023-03-04T12:03:55;5.93;;;2.30;;
10244;SDS011;5167;52.164;10.530;2023-03-04T12:06:49;2.63;;;1.20;;
10244;SDS011;5167;52.164;10.530;2023-03-04T12:12:22;5.63;;;1.97;;
10244;SDS011;5167;52.164;10.530;2023-03-04T12:15:01;7.87;;;1.50;;
10244;SDS011;5167;52.164;10.530;2023-03-04T12:17:41;5.73;;;2.03;;
10244;SDS011;5167;52.164;10.530;2023-03-04T12:22:58;8.43;;;2.03;;
10244;SDS011;5167;52.164;10.530;2023-03-04T12:25:49;7.53;;;2.20;;
10244;SDS011;5167;52.164;10.530;2023-03-04T12:28:39;10.37;;;1.93;;
10244;SDS011;5167;52.164;10.530;2023-03-04T12:31:33;11.03;;;1.80;;
10244;SDS011;5167;52.164;10.530;2023-03-04T12:37:08;5.57;;;1.93;;
10244;SDS011;5167;52.164;10.530;2023-03-04T12:45:13;7.43;;;2.20;;
10244;SDS011;5167;52.164;10.530;2023-03-04T12:47:47;9.83;;;1.60;;
10244;SDS011;5167;52.164;10.530;2023-03-04T12:50:53;3.90;;;1.30;;
10244;SDS011;5167;52.164;10.530;2023-03-04T12:53:27;3.07;;;1.50;;
10244;SDS011;5167;52.164;10.530;2023-03-04T12:56:00;3.63;;;1.60;;
10244;SDS011;5167;52.164;10.530;2023-03-04T12:58:29;2.23;;;1.60;;
10244;SDS011;5167;52.164;10.530;2023-03-04T13:01:00;8.73;;;1.70;;
10244;SDS011;5167;52.164;10.530;2023-03-04T13:09:27;5.37;;;2.00;;
10244;SDS011;5167;52.164;10.530;2023-03-04T13:14:36;5.60;;;2.07;;
10244;SDS011;5167;52.164;10.530;2023-03-04T13:17:33;3.53;;;2.37;;
10244;SDS011;5167;52.164;10.530;2023-03-04T13:20:20;6.87;;;2.60;;
10244;SDS011;5167;52.164;10.530;2023-03-04T13:23:00;10.10;;;3.07;;
10244;SDS011;5167;52.164;10.530;2023-03-04T13:25:39;7.30;;;2.17;;
10244;SDS011;5167;52.164;10.530;2023-03-04T13:41:38;7.00;;;2.90;;
10244;SDS011;5167;52.164;10.530;2023-03-04T13:43:43;7.63;;;2.63;;
10244;SDS011;5167;52.164;10.530;2023-03-04T13:51:17;7.17;;;1.93;;
10244;SDS011;5167;52.164;10.530;2023-03-04T13:56:44;10.03;;;1.93;;
10244;SDS011;5167;52.164;10.530;2023-03-04T13:59:20;9.03;;;2.13;;
10244;SDS011;5167;52.164;10.530;2023-03-04T14:06:44;4.53;;;1.90;;
10244;SDS011;5167;52.164;10.530;2023-03-04T14:09:12;3.53;;;2.00;;
10244;SDS011;5167;52.164;10.530;2023-03-04T14:11:39;5.30;;;1.40;;
10244;SDS011;5167;52.164;10.530;2023-03-04T14:14:07;4.00;;;1.60;;
10244;SDS011;5167;52.164;10.530;2023-03-04T14:16:44;5.03;;;1.47;;
10244;SDS011;5167;52.164;10.530;2023-03-04T14:19:26;5.13;;;1.70;;
10244;SDS011;5167;52.164;10.530;2023-03-04T14:21:53;3.40;;;1.77;;
10244;SDS011;5167;52.164;10.530;2023-03-04T14:24:20;4.70;;;1.73;;
10244;SDS011;5167;52.164;10.530;2023-03-04T14:26:46;6.97;;;2.13;;
10244;SDS011;5167;52.164;10.530;2023-03-04T14:29:19;8.30;;;1.97;;
10244;SDS011;5167;52.164;10.530;2023-03-04T14:31:55;3.47;;;2.03;;
10244;SDS011;5167;52.164;10.530;2023-03-04T14:34:29;6.00;;;2.47;;
10244;SDS011;5167;52.164;10.530;2023-03-04T14:37:00;5.43;;;2.33;;
10244;SDS011;5167;52.164;10.530;2023-03-04T14:39:28;13.23;;;2.43;;
10244;SDS011;5167;52.164;10.530;2023-03-04T14:41:57;3.30;;;2.30;;
10244;SDS011;5167;52.164;10.530;2023-03-04T14:44:36;6.30;;;2.47;;
10244;SDS011;5167;52.164;10.530;2023-03-04T14:47:09;8.00;;;2.50;;
10244;SDS011;5167;52.164;10.530;2023-03-04T14:49:38;4.63;;;2.17;;
10244;SDS011;5167;52.164;10.530;2023-03-04T14:52:24;2.10;;;1.67;;
10244;SDS011;5167;52.164;10.530;2023-03-04T14:55:00;3.10;;;1.83;;
10244;SDS011;5167;52.164;10.530;2023-03-04T14:57:42;7.00;;;2.63;;
10244;SDS011;5167;52.164;10.530;2023-03-04T15:03:00;7.67;;;2.70;;
10244;SDS011;5167;52.164;10.530;2023-03-04T15:05:46;9.60;;;2.37;;
10244;SDS011;5167;52.164;10.530;2023-03-04T15:08:19;6.80;;;2.70;;
10244;SDS011;5167;52.164;10.530;2023-03-04T15:10:52;5.13;;;2.13;;
10244;SDS011;5167;52.164;10.530;2023-03-04T15:13:41;9.47;;;2.33;;
10244;SDS011;5167;52.164;10.530;2023-03-04T15:16:14;7.63;;;2.73;;
10244;SDS011;5167;52.164;10.530;2023-03-04T15:21:36;7.90;;;2.17;;
10244;SDS011;5167;52.164;10.530;2023-03-04T15:24:07;12.13;;;2.40;;
10244;SDS011;5167;52.164;10.530;2023-03-04T15:26:37;9.43;;;2.43;;
10244;SDS011;5167;52.164;10.530;2023-03-04T15:29:11;12.60;;;3.67;;
10244;SDS011;5167;52.164;10.530;2023-03-04T15:31:43;4.03;;;2.00;;
10244;SDS011;5167;52.164;10.530;2023-03-04T15:34:12;13.00;;;2.73;;
10244;SDS011;5167;52.164;10.530;2023-03-04T15:36:39;8.93;;;1.90;;
10244;SDS011;5167;52.164;10.530;2023-03-04T15:39:05;6.17;;;2.13;;
10244;SDS011;5167;52.164;10.530;2023-03-04T15:41:34;7.40;;;1.87;;
10244;SDS011;5167;52.164;10.530;2023-03-04T15:44:00;4.93;;;2.13;;
10244;SDS011;5167;52.164;10.530;2023-03-04T15:46:25;6.17;;;2.93;;
10244;SDS011;5167;52.164;10.530;2023-03-04T15:48:51;9.57;;;2.50;;
10244;SDS011;5167;52.164;10.530;2023-03-04T15:51:18;6.33;;;2.27;;
10244;SDS011;5167;52.164;10.530;2023-03-04T15:53:47;14.53;;;3.20;;
10244;SDS011;5167;52.164;10.530;2023-03-04T15:56:22;6.63;;;3.13;;
10244;SDS011;5167;52.164;10.530;2023-03-04T15:58:52;8.03;;;2.80;;
10244;SDS011;5167;52.164;10.530;2023-03-04T16:01:19;11.17;;;2.57;;
10244;SDS011;5167;52.164;10.530;2023-03-04T16:03:46;12.97;;;2.93;;
10244;SDS011;5167;52.164;10.530;2023-03-04T16:06:12;13.17;;;4.03;;
10244;SDS011;5167;52.164;10.530;2023-03-04T16:08:39;9.97;;;2.57;;
10244;SDS011;5167;52.164;10.530;2023-03-04T16:11:06;10.07;;;2.70;;
10244;SDS011;5167;52.164;10.530;2023-03-04T16:13:38;11.70;;;2.77;;
10244;SDS011;5167;52.164;10.530;2023-03-04T16:16:04;8.13;;;2.77;;
10244;SDS011;5167;52.164;10.530;2023-03-04T16:18:29;17.40;;;3.40;;